createdAt,value
2022-12-18T00:00:38.000Z,25
2022-12-18T00:04:06.000Z,29.6
2022-12-18T00:07:34.000Z,24.9
2022-12-18T00:11:02.000Z,35
2022-12-18T00:14:30.000Z,40.4
2022-12-18T00:18:02.000Z,51.5
2022-12-18T00:21:30.000Z,58.3
2022-12-18T00:24:58.000Z,51.3
2022-12-18T00:28:25.000Z,38.6
2022-12-18T00:31:53.000Z,30.9
2022-12-18T00:35:21.000Z,22.8
2022-12-18T00:38:11.000Z,23.2
2022-12-18T00:41:38.000Z,29.2
2022-12-18T00:45:06.000Z,29.5
2022-12-18T00:48:34.000Z,38.1
2022-12-18T00:52:02.000Z,43.9
2022-12-18T00:55:30.000Z,33.3
2022-12-18T00:58:58.000Z,36
2022-12-18T01:02:26.000Z,49.1
2022-12-18T01:05:54.000Z,27.9
2022-12-18T01:09:22.000Z,33.3
2022-12-18T01:12:50.000Z,41.6
2022-12-18T01:15:39.000Z,48.2
2022-12-18T01:19:06.000Z,43.6
2022-12-18T01:22:34.000Z,47.4
2022-12-18T01:26:02.000Z,54.1
2022-12-18T01:29:30.000Z,49.8
2022-12-18T01:32:58.000Z,54
2022-12-18T01:36:26.000Z,44.3
2022-12-18T01:39:54.000Z,48.7
2022-12-18T01:43:22.000Z,48
2022-12-18T01:46:50.000Z,51.1
2022-12-18T01:50:18.000Z,42.5
2022-12-18T01:53:07.000Z,26.6
2022-12-18T01:56:35.000Z,28.3
2022-12-18T02:00:02.000Z,24.4
2022-12-18T02:03:31.000Z,34
2022-12-18T02:06:59.000Z,31.3
2022-12-18T02:10:27.000Z,28.7
2022-12-18T02:13:55.000Z,36.2
2022-12-18T02:17:23.000Z,38.3
2022-12-18T02:20:51.000Z,40.1
2022-12-18T02:24:19.000Z,44.7
2022-12-18T02:27:47.000Z,28.8
2022-12-18T02:30:36.000Z,22.5
2022-12-18T02:34:04.000Z,20.8
2022-12-18T02:37:32.000Z,25
2022-12-18T02:41:00.000Z,26.2
2022-12-18T02:44:28.000Z,24.6
2022-12-18T02:47:56.000Z,25.3
2022-12-18T02:51:24.000Z,28.2
2022-12-18T02:54:51.000Z,27.1
2022-12-18T02:58:19.000Z,26.9
2022-12-18T03:01:47.000Z,24.1
2022-12-18T03:05:16.000Z,18.9
2022-12-18T03:08:05.000Z,25.4
2022-12-18T03:11:33.000Z,22.6
2022-12-18T03:15:01.000Z,26.8
2022-12-18T03:18:35.000Z,24.9
2022-12-18T03:22:02.000Z,25.9
2022-12-18T03:25:30.000Z,23.2
2022-12-18T03:28:58.000Z,23.6
2022-12-18T03:32:26.000Z,23.7
2022-12-18T03:35:54.000Z,25.9
2022-12-18T03:39:22.000Z,23.7
2022-12-18T03:42:50.000Z,23.3
2022-12-18T03:45:39.000Z,25.2
2022-12-18T03:49:07.000Z,24.9
2022-12-18T03:52:35.000Z,28
2022-12-18T03:56:03.000Z,28.2
2022-12-18T03:59:31.000Z,23.1
2022-12-18T04:02:59.000Z,21.8
2022-12-18T04:06:27.000Z,21.8
2022-12-18T04:09:54.000Z,23.9
2022-12-18T04:13:22.000Z,23.9
2022-12-18T04:16:50.000Z,27.8
2022-12-18T04:20:18.000Z,26
2022-12-18T04:23:08.000Z,27
2022-12-18T04:26:35.000Z,33.4
2022-12-18T04:30:03.000Z,39.4
2022-12-18T04:33:31.000Z,27.9
2022-12-18T04:37:00.000Z,26.9
2022-12-18T04:40:28.000Z,19.4
2022-12-18T04:43:56.000Z,25.5
2022-12-18T04:47:24.000Z,24.4
2022-12-18T04:50:51.000Z,24.9
2022-12-18T04:54:19.000Z,25.6
2022-12-18T04:57:47.000Z,21.8
2022-12-18T05:00:36.000Z,26.2
2022-12-18T05:04:04.000Z,26.9
2022-12-18T05:07:32.000Z,28.3
2022-12-18T05:11:01.000Z,27.4
2022-12-18T05:14:31.000Z,27.4
2022-12-18T05:17:59.000Z,22.9
2022-12-18T05:21:27.000Z,22.8
2022-12-18T05:24:55.000Z,31.3
2022-12-18T05:28:23.000Z,27.7
2022-12-18T05:31:51.000Z,26.1
2022-12-18T05:35:18.000Z,25.1
2022-12-18T05:38:07.000Z,27
2022-12-18T05:41:35.000Z,21
2022-12-18T05:45:04.000Z,25.4
2022-12-18T05:48:32.000Z,25.9
2022-12-18T05:52:00.000Z,28
2022-12-18T05:55:28.000Z,31.1
2022-12-18T05:58:56.000Z,29.4
2022-12-18T06:02:23.000Z,28.6
2022-12-18T06:05:51.000Z,24.4
2022-12-18T06:09:19.000Z,22.5
2022-12-18T06:12:47.000Z,25.2
2022-12-18T06:15:36.000Z,25.1
2022-12-18T06:19:04.000Z,21.9
2022-12-18T06:22:32.000Z,22.3
2022-12-18T06:26:00.000Z,25.8
2022-12-18T06:29:28.000Z,27.1
2022-12-18T06:32:56.000Z,27.5
2022-12-18T06:36:24.000Z,26.3
2022-12-18T06:39:52.000Z,19.3
2022-12-18T06:43:20.000Z,31.4
2022-12-18T06:46:48.000Z,25.3
2022-12-18T06:50:16.000Z,29.1
2022-12-18T06:53:04.000Z,26
2022-12-18T06:56:32.000Z,27
2022-12-18T07:00:00.000Z,32.5
2022-12-18T07:03:28.000Z,30.8
2022-12-18T07:07:03.000Z,28.8
2022-12-18T07:10:31.000Z,31.3
2022-12-18T07:14:06.000Z,28.6
2022-12-18T07:17:34.000Z,27
2022-12-18T07:21:02.000Z,29.3
2022-12-18T07:24:30.000Z,30.3
2022-12-18T07:27:58.000Z,34.6
2022-12-18T07:30:47.000Z,26.9
2022-12-18T07:34:16.000Z,29.6
2022-12-18T07:37:44.000Z,27.4
2022-12-18T07:41:12.000Z,30.3
2022-12-18T07:44:40.000Z,22.2
2022-12-18T07:48:09.000Z,29.8
2022-12-18T07:51:37.000Z,32.5
2022-12-18T07:55:05.000Z,23.7
2022-12-18T07:58:33.000Z,35.5
2022-12-18T08:02:01.000Z,32.2
2022-12-18T08:05:29.000Z,44.1
2022-12-18T08:08:18.000Z,46.3
2022-12-18T08:11:46.000Z,49.4
2022-12-18T08:15:13.000Z,67.5
2022-12-18T08:18:41.000Z,61.5
2022-12-18T08:22:10.000Z,67.8
2022-12-18T08:25:39.000Z,49.9
2022-12-18T08:29:25.000Z,45.5
2022-12-18T08:32:54.000Z,45.8
2022-12-18T08:36:22.000Z,40.7
2022-12-18T08:39:49.000Z,37.1
2022-12-18T08:43:17.000Z,34.5
2022-12-18T08:46:07.000Z,55.5
2022-12-18T08:49:35.000Z,43.6
2022-12-18T08:53:03.000Z,46.2
2022-12-18T08:56:31.000Z,63.6
2022-12-18T08:59:58.000Z,51.8
2022-12-18T09:03:28.000Z,40.5
2022-12-18T09:06:55.000Z,45.8
2022-12-18T09:10:23.000Z,40.5
2022-12-18T09:13:51.000Z,43.5
2022-12-18T09:17:19.000Z,46.7
2022-12-18T09:20:47.000Z,57.3
2022-12-18T09:23:36.000Z,57.1
2022-12-18T09:27:04.000Z,52
2022-12-18T09:30:32.000Z,48.5
2022-12-18T09:34:00.000Z,52.7
2022-12-18T09:37:28.000Z,53.1
2022-12-18T09:41:01.000Z,50.7
2022-12-18T09:44:28.000Z,43.6
2022-12-18T09:48:05.000Z,47.2
2022-12-18T09:51:32.000Z,44.3
2022-12-18T09:55:01.000Z,41
2022-12-18T09:58:28.000Z,42
2022-12-18T10:01:17.000Z,45
2022-12-18T10:04:49.000Z,46.3
2022-12-18T10:08:17.000Z,50
2022-12-18T10:11:45.000Z,51.8
2022-12-18T10:15:13.000Z,49.1
2022-12-18T10:18:41.000Z,46.9
2022-12-18T10:22:08.000Z,44.3
2022-12-18T10:25:44.000Z,47.3
2022-12-18T10:29:12.000Z,36
2022-12-18T10:32:39.000Z,39.1
2022-12-18T10:36:07.000Z,45.8
2022-12-18T10:38:56.000Z,40
2022-12-18T10:42:24.000Z,50.4
2022-12-18T10:45:53.000Z,42.5
2022-12-18T10:49:21.000Z,31.8
2022-12-18T10:53:09.000Z,35.3
2022-12-18T10:56:37.000Z,41.7
2022-12-18T11:00:06.000Z,43.5
2022-12-18T11:03:34.000Z,49.9
2022-12-18T11:07:02.000Z,29.7
2022-12-18T11:10:30.000Z,45.7
2022-12-18T11:13:58.000Z,47
2022-12-18T11:16:47.000Z,50.6
2022-12-18T11:20:45.000Z,46.4
2022-12-18T11:24:19.000Z,50.2
2022-12-18T11:27:46.000Z,43.7
2022-12-18T11:31:15.000Z,46.4
2022-12-18T11:34:44.000Z,42.8
2022-12-18T11:38:19.000Z,37.8
2022-12-18T11:41:47.000Z,39.7
2022-12-18T11:45:14.000Z,37.3
2022-12-18T11:48:42.000Z,41.8
2022-12-18T11:52:10.000Z,43.6
2022-12-18T11:54:59.000Z,55.3
2022-12-18T11:58:27.000Z,42.1
2022-12-18T12:01:55.000Z,48.5
2022-12-18T12:05:24.000Z,50.4
2022-12-18T12:08:59.000Z,45.7
2022-12-18T12:12:27.000Z,42.8
2022-12-18T12:15:54.000Z,48.1
2022-12-18T12:19:23.000Z,47.6
2022-12-18T12:22:51.000Z,46.8
2022-12-18T12:26:19.000Z,54.1
2022-12-18T12:29:47.000Z,53.8
2022-12-18T12:32:36.000Z,53.3
2022-12-18T12:36:05.000Z,46.1
2022-12-18T12:39:33.000Z,62.5
2022-12-18T12:43:01.000Z,50
2022-12-18T12:46:29.000Z,57.5
2022-12-18T12:49:57.000Z,52
2022-12-18T12:53:28.000Z,53.4
2022-12-18T12:56:56.000Z,51.1
2022-12-18T13:00:25.000Z,43.2
2022-12-18T13:03:54.000Z,53.4
2022-12-18T13:07:22.000Z,44.9
2022-12-18T13:10:12.000Z,62.5
2022-12-18T13:13:41.000Z,82.5
2022-12-18T13:17:10.000Z,75.1
2022-12-18T13:20:40.000Z,64.8
2022-12-18T13:24:16.000Z,81.1
2022-12-18T13:27:43.000Z,48.9
2022-12-18T13:31:13.000Z,56.5
2022-12-18T13:34:41.000Z,52.8
2022-12-18T13:38:08.000Z,54.6
2022-12-18T13:41:38.000Z,58.2
2022-12-18T13:45:07.000Z,54.4
2022-12-18T13:47:56.000Z,61.4
2022-12-18T13:51:24.000Z,55.7
2022-12-18T13:54:52.000Z,60.2
2022-12-18T13:58:20.000Z,56.4
2022-12-18T14:01:48.000Z,55.1
2022-12-18T14:05:18.000Z,58.9
2022-12-18T14:08:47.000Z,47.9
2022-12-18T14:12:44.000Z,60.2
2022-12-18T14:16:12.000Z,53.4
2022-12-18T14:19:41.000Z,53.7
2022-12-18T14:23:09.000Z,49.8
2022-12-18T14:25:58.000Z,57.3
2022-12-18T14:29:26.000Z,56.3
2022-12-18T14:32:54.000Z,61.8
2022-12-18T14:36:22.000Z,56.5
2022-12-18T14:39:50.000Z,62.6
2022-12-18T14:43:18.000Z,58.5
2022-12-18T14:47:10.000Z,58.9
2022-12-18T14:50:38.000Z,62.1
2022-12-18T14:54:07.000Z,63.5
2022-12-18T14:57:35.000Z,57.9
2022-12-18T15:01:03.000Z,65.8
2022-12-18T15:03:52.000Z,59.1
2022-12-18T15:07:20.000Z,58.6
2022-12-18T15:10:48.000Z,61.6
2022-12-18T15:14:16.000Z,61.2
2022-12-18T15:17:44.000Z,59.7
2022-12-18T15:21:12.000Z,63.1
2022-12-18T15:24:40.000Z,61.8
2022-12-18T15:28:08.000Z,58.1
2022-12-18T15:31:35.000Z,65.8
2022-12-18T15:35:03.000Z,58.5
2022-12-18T15:38:31.000Z,55.4
2022-12-18T15:41:20.000Z,58.1
2022-12-18T15:44:48.000Z,57.5
2022-12-18T15:48:16.000Z,52.7
2022-12-18T15:51:44.000Z,59.6
2022-12-18T15:55:12.000Z,59.2
2022-12-18T15:58:40.000Z,61.5
2022-12-18T16:02:08.000Z,59.8
2022-12-18T16:05:37.000Z,55.3
2022-12-18T16:09:15.000Z,68.7
2022-12-18T16:12:47.000Z,61.5
2022-12-18T16:16:14.000Z,65.1
2022-12-18T16:19:05.000Z,54
2022-12-18T16:22:33.000Z,61.9
2022-12-18T16:26:01.000Z,45.2
2022-12-18T16:29:29.000Z,54.9
2022-12-18T16:32:57.000Z,50.8
2022-12-18T16:36:25.000Z,60.7
2022-12-18T16:39:53.000Z,52
2022-12-18T16:43:21.000Z,56.8
2022-12-18T16:46:49.000Z,49.7
2022-12-18T16:50:17.000Z,52.5
2022-12-18T16:53:45.000Z,53.1
2022-12-18T16:56:34.000Z,50.5
2022-12-18T17:00:02.000Z,50.2
2022-12-18T17:03:30.000Z,47.9
2022-12-18T17:06:59.000Z,44.5
2022-12-18T17:10:26.000Z,52.9
2022-12-18T17:14:00.000Z,49.3
2022-12-18T17:17:28.000Z,56.3
2022-12-18T17:20:56.000Z,58
2022-12-18T17:24:23.000Z,56.2
2022-12-18T17:27:55.000Z,51.7
2022-12-18T17:31:23.000Z,57.7
2022-12-18T17:34:12.000Z,60.5
2022-12-18T17:37:42.000Z,50.9
2022-12-18T17:41:09.000Z,50.9
2022-12-18T17:44:37.000Z,56.4
2022-12-18T17:48:05.000Z,58.9
2022-12-18T17:51:33.000Z,54.6
2022-12-18T17:55:01.000Z,62.8
2022-12-18T17:58:30.000Z,47.1
2022-12-18T18:01:59.000Z,56.2
2022-12-18T18:05:27.000Z,44.7
2022-12-18T18:08:55.000Z,48.5
2022-12-18T18:11:45.000Z,57.9
2022-12-18T18:15:14.000Z,56.6
2022-12-18T18:18:42.000Z,52.3
2022-12-18T18:22:18.000Z,48
2022-12-18T18:25:48.000Z,52.8
2022-12-18T18:29:16.000Z,52.7
2022-12-18T18:32:47.000Z,51.3
2022-12-18T18:36:15.000Z,57.9
2022-12-18T18:39:42.000Z,53
2022-12-18T18:43:10.000Z,67.7
2022-12-18T18:46:45.000Z,87.1
2022-12-18T18:49:34.000Z,77.6
2022-12-18T18:53:02.000Z,66.2
2022-12-18T18:56:30.000Z,62.6
2022-12-18T19:00:40.000Z,57
2022-12-18T19:04:08.000Z,55.7
2022-12-18T19:07:43.000Z,65.5
2022-12-18T19:11:11.000Z,59.4
2022-12-18T19:14:40.000Z,55.7
2022-12-18T19:18:08.000Z,51.5
2022-12-18T19:21:37.000Z,55.1
2022-12-18T19:25:05.000Z,60.8
2022-12-18T19:27:54.000Z,51.7
2022-12-18T19:31:25.000Z,44.9
2022-12-18T19:35:22.000Z,52.4
2022-12-18T19:38:56.000Z,50.4
2022-12-18T19:42:24.000Z,46.8
2022-12-18T19:45:57.000Z,52
2022-12-18T19:49:25.000Z,55
2022-12-18T19:52:53.000Z,60.2
2022-12-18T19:56:22.000Z,50.5
2022-12-18T19:59:50.000Z,53.7
2022-12-18T20:03:18.000Z,62.2
2022-12-18T20:06:13.000Z,64.9
2022-12-18T20:09:41.000Z,61.9
2022-12-18T20:13:20.000Z,54.4
2022-12-18T20:16:47.000Z,61.3
2022-12-18T20:20:16.000Z,56.9
2022-12-18T20:23:44.000Z,56.9
2022-12-18T20:27:12.000Z,56.9
2022-12-18T20:30:40.000Z,51.6
2022-12-18T20:34:08.000Z,53.6
2022-12-18T20:37:37.000Z,60.9
2022-12-18T20:41:11.000Z,56.8
2022-12-18T20:44:00.000Z,66.5
2022-12-18T20:47:43.000Z,65.4
2022-12-18T20:51:11.000Z,61.6
2022-12-18T20:54:39.000Z,50.1
2022-12-18T20:58:07.000Z,60.8
2022-12-18T21:01:44.000Z,56.2
2022-12-18T21:05:12.000Z,58.6
2022-12-18T21:08:48.000Z,52.4
2022-12-18T21:12:16.000Z,56.4
2022-12-18T21:15:44.000Z,55.1
2022-12-18T21:19:12.000Z,59.1
2022-12-18T21:22:01.000Z,54.5
2022-12-18T21:25:29.000Z,56.9
2022-12-18T21:28:57.000Z,55.6
2022-12-18T21:32:25.000Z,53.2
2022-12-18T21:35:58.000Z,56.1
2022-12-18T21:39:26.000Z,54.5
2022-12-18T21:42:54.000Z,59.3
2022-12-18T21:46:22.000Z,54.9
2022-12-18T21:49:50.000Z,58.4
2022-12-18T21:53:18.000Z,56.6
2022-12-18T21:56:46.000Z,55.7
2022-12-18T21:59:35.000Z,57.1
2022-12-18T22:03:03.000Z,54.5
2022-12-18T22:06:39.000Z,50.3
2022-12-18T22:10:08.000Z,55
2022-12-18T22:13:35.000Z,54.9
2022-12-18T22:17:03.000Z,57.8
2022-12-18T22:20:31.000Z,51.8
2022-12-18T22:23:59.000Z,64.7
2022-12-18T22:27:27.000Z,58.7
2022-12-18T22:30:55.000Z,59.4
2022-12-18T22:34:27.000Z,54.8
2022-12-18T22:37:18.000Z,63.5
2022-12-18T22:40:47.000Z,53.8
2022-12-18T22:44:15.000Z,56.9
2022-12-18T22:47:43.000Z,52.4
2022-12-18T22:51:11.000Z,58.8
2022-12-18T22:54:39.000Z,54.3
2022-12-18T22:58:13.000Z,60.2
2022-12-18T23:01:41.000Z,60.8
2022-12-18T23:05:09.000Z,55.1
2022-12-18T23:08:37.000Z,57.9
2022-12-18T23:12:05.000Z,62.6
2022-12-18T23:14:55.000Z,66.1
2022-12-18T23:18:23.000Z,58.4
2022-12-18T23:21:50.000Z,53.4
2022-12-18T23:25:18.000Z,57.8
2022-12-18T23:28:46.000Z,54.9
2022-12-18T23:32:14.000Z,49.6
2022-12-18T23:35:42.000Z,54.6
2022-12-18T23:39:38.000Z,55.2
2022-12-18T23:43:06.000Z,56.1
2022-12-18T23:46:34.000Z,57.3
2022-12-18T23:50:02.000Z,59.6
2022-12-18T23:52:51.000Z,60.4
2022-12-18T23:56:29.000Z,53.9
2022-12-18T23:59:57.000Z,56.9
